Time;durP1;ratioP1;P1;durP2;ratioP2;P2;SDS_P1;SDS_P2;PMS_P1;PMS_P2;Temp;Humidity;BMP_temperature;BMP_pressure;BME280_temperature;BME280_humidity;BME280_pressure;Samples;Min_cycle;Max_cycle;Signal;HPM_P1;HPM_P2
2022/03/24 00:00:51;;;;;;;0.70;0.70;;;6.70;68.10;;;;;;5036748;28;20518;-87
2022/03/24 00:03:26;;;;;;;0.53;0.53;;;6.60;68.30;;;;;;5034005;28;20467;-88
2022/03/24 00:09:35;;;;;;;6.93;0.80;;;6.50;68.50;;;;;;5027201;28;20478;-89
2022/03/24 00:12:44;;;;;;;0.53;0.50;;;6.40;69.10;;;;;;5011874;28;20549;-88
2022/03/24 00:18:36;;;;;;;0.60;0.60;;;6.40;70.10;;;;;;5027087;28;20481;-87
2022/03/24 00:33:38;;;;;;;0.80;0.40;;;6.10;70.80;;;;;;5035246;28;20941;-89
2022/03/24 00:43:42;;;;;;;3.20;0.53;;;6.10;71.50;;;;;;5029915;28;20475;-88
2022/03/24 00:46:35;;;;;;;0.57;0.57;;;6.00;71.60;;;;;;5033664;28;20516;-89
2022/03/24 00:53:03;;;;;;;0.70;0.70;;;6.00;71.90;;;;;;5018846;28;20451;-90
2022/03/24 01:02:28;;;;;;;0.53;0.53;;;5.70;73.00;;;;;;5034665;28;20486;-89
2022/03/24 01:05:31;;;;;;;0.50;0.50;;;5.70;73.80;;;;;;5035376;28;20462;-88
2022/03/24 01:12:26;;;;;;;0.63;0.63;;;5.70;73.60;;;;;;5016697;28;20434;-88
2022/03/24 01:25:34;;;;;;;0.60;0.60;;;5.80;74.50;;;;;;4940855;29;20908;-86
2022/03/24 01:28:42;;;;;;;0.63;0.63;;;5.70;74.70;;;;;;5032977;28;20443;-87
2022/03/24 01:31:46;;;;;;;0.90;0.90;;;5.60;74.90;;;;;;5033871;28;21035;-85
2022/03/24 01:34:39;;;;;;;0.57;0.50;;;5.50;73.80;;;;;;5033599;28;20462;-87
2022/03/24 01:44:38;;;;;;;0.83;0.83;;;5.50;76.40;;;;;;4841197;29;20472;-88
2022/03/24 01:48:14;;;;;;;0.80;0.60;;;5.40;76.90;;;;;;4837495;29;20489;-89
2022/03/24 02:36:14;;;;;;;;;;;;;;;;;;;;;
2022/03/24 02:52:34;;;;;;;2.00;0.50;;;4.70;83.30;;;;;;5049761;28;20882;-87
2022/03/24 05:43:24;;;;;;;3.10;2.93;;;3.60;99.80;;;;;;4896046;29;20449;-86
2022/03/24 05:45:51;;;;;;;0.50;0.50;;;3.60;99.50;;;;;;4953566;29;20430;-88
2022/03/24 05:48:18;;;;;;;0.70;0.70;;;3.60;99.90;;;;;;5013413;28;20519;-87
2022/03/24 05:50:45;;;;;;;0.30;0.20;;;3.70;99.90;;;;;;5053705;28;20565;-87
2022/03/24 05:53:14;;;;;;;0.30;0.30;;;3.70;99.90;;;;;;5053467;28;20454;-87
2022/03/24 05:55:41;;;;;;;0.63;0.63;;;3.80;99.90;;;;;;5053381;28;20480;-90
2022/03/24 05:58:09;;;;;;;0.30;0.30;;;3.80;99.90;;;;;;5053101;28;20425;-91
2022/03/24 06:00:40;;;;;;;1.33;1.33;;;3.90;99.90;;;;;;5053391;28;20481;-89
2022/03/24 06:03:07;;;;;;;0.40;0.30;;;4.00;99.90;;;;;;5054205;28;20453;-88
2022/03/24 06:05:38;;;;;;;0.87;0.87;;;4.10;99.90;;;;;;5053052;28;20466;-88
2022/03/24 06:08:07;;;;;;;0.60;0.40;;;4.10;99.70;;;;;;5053200;28;20418;-87
2022/03/24 06:10:34;;;;;;;1.07;1.07;;;4.20;99.90;;;;;;5053487;28;20454;-88
2022/03/24 06:13:01;;;;;;;0.40;0.40;;;4.30;99.90;;;;;;5053055;28;20847;-88
2022/03/24 06:15:29;;;;;;;0.60;0.60;;;4.30;99.60;;;;;;5053179;28;20446;-89
2022/03/24 06:17:59;;;;;;;1.47;0.43;;;4.40;99.60;;;;;;5052886;28;20988;-88
2022/03/24 06:20:26;;;;;;;0.80;0.80;;;4.40;99.40;;;;;;5053096;28;20885;-90
2022/03/24 06:22:54;;;;;;;0.53;0.40;;;4.50;98.80;;;;;;5053140;28;20506;-88
2022/03/24 06:25:21;;;;;;;0.30;0.30;;;4.60;98.60;;;;;;5053456;28;20458;-88
2022/03/24 06:27:49;;;;;;;0.67;0.67;;;5.10;98.10;;;;;;5053765;28;20454;-89
2022/03/24 06:30:17;;;;;;;0.40;0.40;;;5.90;97.10;;;;;;5053010;28;20992;-88
2022/03/24 06:32:44;;;;;;;1.17;0.77;;;6.80;96.20;;;;;;5053353;28;20458;-88
2022/03/24 06:35:13;;;;;;;0.83;0.83;;;7.60;95.30;;;;;;5053265;28;20453;-86
2022/03/24 06:37:40;;;;;;;0.40;0.40;;;8.20;94.00;;;;;;5053260;28;20512;-85
2022/03/24 06:40:09;;;;;;;1.73;0.60;;;8.40;92.40;;;;;;5053052;28;20457;-86
2022/03/24 06:42:36;;;;;;;0.53;0.53;;;8.20;91.70;;;;;;5053361;28;20452;-86
2022/03/24 06:45:03;;;;;;;0.93;0.43;;;7.80;91.80;;;;;;5053226;28;20438;-86
2022/03/24 06:47:30;;;;;;;0.40;0.40;;;7.50;92.40;;;;;;5053054;28;20545;-86
2022/03/24 06:49:57;;;;;;;2.60;0.77;;;7.30;93.00;;;;;;5053192;28;20557;-87
2022/03/24 06:52:25;;;;;;;1.33;0.57;;;7.00;93.40;;;;;;5052937;28;20430;-86
2022/03/24 06:54:52;;;;;;;0.50;0.50;;;6.90;93.90;;;;;;5053048;28;20434;-87
2022/03/24 06:57:19;;;;;;;3.03;1.80;;;6.80;93.90;;;;;;5057130;28;20481;-87
2022/03/24 06:59:46;;;;;;;1.90;0.83;;;6.70;94.50;;;;;;5056682;28;20464;-87
2022/03/24 07:02:12;;;;;;;0.90;0.90;;;6.70;94.60;;;;;;5057210;28;20419;-88
2022/03/24 07:04:39;;;;;;;0.80;0.50;;;6.60;94.70;;;;;;5057143;28;20449;-86
2022/03/24 07:07:06;;;;;;;4.77;0.80;;;6.50;95.10;;;;;;5056961;28;20459;-89
2022/03/24 07:09:35;;;;;;;3.20;1.10;;;6.50;95.10;;;;;;5057093;28;20469;-87
2022/03/24 07:12:03;;;;;;;0.70;0.70;;;6.50;94.70;;;;;;5057717;28;20800;-88
2022/03/24 07:14:29;;;;;;;0.30;0.30;;;6.60;94.70;;;;;;5057147;28;20434;-89
2022/03/24 07:16:56;;;;;;;2.23;1.07;;;6.70;94.80;;;;;;5057108;28;20481;-89
2022/03/24 07:19:24;;;;;;;0.97;0.60;;;6.70;94.70;;;;;;5061425;28;20457;-89
2022/03/24 08:10:33;;;;;;;1.70;1.00;;;9.50;91.60;;;;;;5094201;28;21010;-86
2022/03/24 08:13:00;;;;;;;1.53;1.43;;;9.70;91.00;;;;;;5096187;28;20494;-86
2022/03/24 08:15:27;;;;;;;1.50;1.10;;;9.90;90.70;;;;;;5095765;28;20428;-86
2022/03/24 08:17:54;;;;;;;1.53;0.70;;;10.20;88.70;;;;;;5095913;28;21005;-86
2022/03/24 08:21:23;;;;;;;2.97;0.90;;;10.40;89.80;;;;;;5075924;28;20948;-86
2022/03/24 08:24:03;;;;;;;0.77;0.70;;;10.60;89.30;;;;;;4919536;29;20881;-85
2022/03/24 08:30:16;;;;;;;0.60;0.60;;;11.20;83.90;;;;;;5011111;28;20457;-86
2022/03/24 08:32:46;;;;;;;2.57;1.63;;;11.40;84.90;;;;;;5075529;28;20443;-85
2022/03/24 08:35:13;;;;;;;11.80;1.07;;;11.70;82.60;;;;;;5075665;28;20432;-85
2022/03/24 08:37:40;;;;;;;1.07;0.93;;;11.90;82.00;;;;;;5075249;28;20568;-85
2022/03/24 08:43:09;;;;;;;1.30;0.83;;;12.30;78.20;;;;;;5062512;28;20425;-85
2022/03/24 08:45:42;;;;;;;10.20;1.20;;;12.50;75.30;;;;;;5075238;28;20475;-85
2022/03/24 08:48:09;;;;;;;1.83;1.33;;;12.80;72.70;;;;;;5075118;28;20471;-85
2022/03/24 08:50:51;;;;;;;1.90;1.23;;;13.10;70.40;;;;;;5075186;28;20453;-85
2022/03/24 08:53:20;;;;;;;4.10;2.30;;;13.40;68.50;;;;;;5075819;28;20444;-82
2022/03/24 08:55:47;;;;;;;1.97;1.10;;;13.60;64.50;;;;;;5075348;28;20979;-83
2022/03/24 08:58:18;;;;;;;5.03;2.30;;;13.80;57.50;;;;;;5074992;28;20471;-83
2022/03/24 09:00:46;;;;;;;2.83;1.60;;;14.20;59.20;;;;;;5076234;28;20565;-84
2022/03/24 09:03:13;;;;;;;5.87;1.67;;;14.50;58.00;;;;;;5075228;28;20444;-83
2022/03/24 09:05:40;;;;;;;3.77;2.07;;;14.90;56.10;;;;;;5075035;28;20406;-83
2022/03/24 09:08:07;;;;;;;4.10;1.30;;;15.50;52.70;;;;;;5074659;28;20444;-83
2022/03/24 09:10:34;;;;;;;2.60;2.37;;;16.60;51.30;;;;;;5074230;28;20939;-83
2022/03/24 09:13:04;;;;;;;5.00;3.30;;;18.20;51.60;;;;;;5074635;28;20811;-83
2022/03/24 09:15:31;;;;;;;4.97;2.60;;;20.00;47.30;;;;;;5074325;28;20433;-82
2022/03/24 09:18:00;;;;;;;2.72;2.13;;;21.70;43.80;;;;;;5073864;28;20559;-82
2022/03/24 09:20:29;;;;;;;4.75;2.70;;;23.30;40.40;;;;;;5074312;28;20234;-82
2022/03/24 09:23:02;;;;;;;7.05;2.58;;;24.20;38.60;;;;;;5074440;28;20276;-83
2022/03/24 09:25:40;;;;;;;8.13;3.35;;;25.10;37.60;;;;;;5074241;28;20209;-83
2022/03/24 09:28:10;;;;;;;8.38;4.40;;;25.70;34.20;;;;;;5073703;28;20190;-83
2022/03/24 09:30:44;;;;;;;5.85;3.60;;;26.30;32.80;;;;;;5077991;28;20252;-82
2022/03/24 09:33:40;;;;;;;5.82;3.53;;;26.60;32.60;;;;;;5074106;28;20177;-82
2022/03/24 09:36:07;;;;;;;4.88;3.22;;;26.70;31.10;;;;;;5068175;28;20297;-82
2022/03/24 09:38:34;;;;;;;7.72;3.38;;;27.10;29.80;;;;;;5073879;28;20229;-83
2022/03/24 09:41:27;;;;;;;6.50;3.50;;;27.20;29.60;;;;;;5073679;28;20205;-83
2022/03/24 09:44:02;;;;;;;6.18;3.35;;;27.50;29.10;;;;;;5073182;28;20662;-82
2022/03/24 09:46:30;;;;;;;6.55;3.00;;;27.80;28.70;;;;;;5073531;28;20277;-83
2022/03/24 09:52:02;;;;;;;3.20;2.00;;;28.40;28.70;;;;;;5027205;28;20230;-83
2022/03/24 09:54:32;;;;;;;6.55;3.88;;;28.80;27.00;;;;;;5073425;28;20586;-83
2022/03/24 09:57:04;;;;;;;5.10;2.38;;;28.90;28.10;;;;;;5073643;28;20186;-82
2022/03/24 09:59:31;;;;;;;6.25;3.58;;;28.90;27.40;;;;;;5073649;28;20654;-83
2022/03/24 10:01:58;;;;;;;5.32;3.28;;;29.00;27.80;;;;;;5073344;28;20697;-83
2022/03/24 10:04:27;;;;;;;7.28;4.28;;;28.80;26.60;;;;;;5073698;28;20191;-83
2022/03/24 10:07:00;;;;;;;8.85;4.18;;;28.70;27.00;;;;;;5074009;28;20356;-83
2022/03/24 10:09:38;;;;;;;8.43;3.75;;;28.50;27.50;;;;;;5073283;28;20238;-83
2022/03/24 10:12:06;;;;;;;8.07;3.28;;;28.40;27.40;;;;;;5073743;28;20186;-84
2022/03/24 10:14:33;;;;;;;5.00;2.92;;;28.70;27.00;;;;;;5073567;28;20202;-83
2022/03/24 10:17:09;;;;;;;6.85;3.42;;;28.70;27.90;;;;;;5073345;28;20206;-82
2022/03/24 10:19:38;;;;;;;7.25;3.58;;;28.40;27.80;;;;;;5073465;28;20592;-82
2022/03/24 10:22:10;;;;;;;6.30;3.15;;;28.50;28.10;;;;;;5073950;28;20190;-89
2022/03/24 10:24:45;;;;;;;6.15;3.47;;;28.80;27.30;;;;;;5074123;28;20195;-85
2022/03/24 10:27:20;;;;;;;4.78;3.55;;;29.50;26.80;;;;;;5074085;28;20218;-84
2022/03/24 10:29:48;;;;;;;8.25;4.25;;;30.00;25.60;;;;;;5075951;28;20240;-87
2022/03/24 10:32:15;;;;;;;4.35;2.80;;;29.80;25.90;;;;;;5078036;28;20188;-84
2022/03/24 10:34:48;;;;;;;5.93;3.22;;;29.90;25.80;;;;;;5077426;28;20194;-84
2022/03/24 10:37:18;;;;;;;5.72;3.30;;;29.60;25.90;;;;;;5077253;28;20646;-83
2022/03/24 10:47:24;;;;;;;8.20;2.95;;;29.50;25.90;;;;;;5065916;28;20188;-83
2022/03/24 10:54:24;;;;;;;5.53;3.28;;;32.00;23.70;;;;;;5048982;28;20190;-83
2022/03/24 10:57:09;;;;;;;6.32;3.25;;;32.50;23.90;;;;;;5075048;28;20188;-82
2022/03/24 10:59:54;;;;;;;10.85;3.83;;;33.00;23.10;;;;;;5097374;28;20220;-83
2022/03/24 11:02:31;;;;;;;6.40;3.08;;;33.30;22.20;;;;;;5097290;28;20767;-82
2022/03/24 11:05:21;;;;;;;4.18;3.00;;;32.90;22.90;;;;;;5097479;28;20316;-83
2022/03/24 11:08:17;;;;;;;3.67;2.60;;;32.30;23.60;;;;;;5097084;28;20202;-82
2022/03/24 11:10:46;;;;;;;4.75;2.88;;;31.40;23.50;;;;;;5097462;28;20188;-82
2022/03/24 11:13:26;;;;;;;4.32;3.25;;;30.20;23.70;;;;;;5097698;28;20632;-83
2022/03/24 11:16:02;;;;;;;6.43;3.78;;;28.40;24.70;;;;;;5096700;28;20290;-82
2022/03/24 11:18:29;;;;;;;5.05;2.78;;;27.10;25.60;;;;;;5097039;28;20587;-83
2022/03/24 11:21:13;;;;;;;8.35;4.15;;;26.20;26.30;;;;;;5097022;28;20198;-83
2022/03/24 11:23:40;;;;;;;4.03;3.08;;;25.40;26.70;;;;;;5097200;28;20621;-82
2022/03/24 11:26:08;;;;;;;6.03;3.42;;;24.60;27.10;;;;;;5096844;28;20178;-82
2022/03/24 11:28:40;;;;;;;3.03;2.20;;;24.10;28.00;;;;;;5095597;28;20253;-83
2022/03/24 11:31:12;;;;;;;9.90;4.30;;;23.50;28.70;;;;;;5097763;28;20637;-83
2022/03/24 11:33:45;;;;;;;5.57;3.10;;;23.30;29.10;;;;;;5098282;28;20205;-83
2022/03/24 11:36:14;;;;;;;4.03;2.35;;;23.10;28.80;;;;;;5098754;28;20262;-83
2022/03/24 11:38:41;;;;;;;7.63;3.40;;;23.00;27.50;;;;;;5097293;28;20594;-83
2022/03/24 11:41:13;;;;;;;6.57;2.67;;;22.70;27.10;;;;;;5096749;28;20575;-83
2022/03/24 11:43:48;;;;;;;4.83;2.13;;;22.50;27.60;;;;;;5098146;28;20189;-83
2022/03/24 11:46:27;;;;;;;6.93;2.80;;;22.20;26.80;;;;;;5097609;28;20437;-83
2022/03/24 11:49:13;;;;;;;7.20;3.40;;;21.80;27.60;;;;;;5097928;28;20498;-83
2022/03/24 11:51:40;;;;;;;1.50;1.40;;;21.50;28.50;;;;;;5102316;28;20957;-83
2022/03/24 11:54:09;;;;;;;7.37;2.33;;;21.30;27.40;;;;;;5097593;28;20459;-83
2022/03/24 11:56:37;;;;;;;5.33;2.57;;;21.20;28.20;;;;;;5096933;28;20436;-84
2022/03/24 11:59:21;;;;;;;2.70;1.97;;;21.00;28.70;;;;;;5096673;28;20586;-83
2022/03/24 12:02:09;;;;;;;5.50;3.50;;;21.00;28.40;;;;;;5098870;28;20993;-82
2022/03/24 12:04:47;;;;;;;7.20;2.60;;;20.80;27.90;;;;;;5098961;28;20462;-83
2022/03/24 12:07:18;;;;;;;5.40;2.20;;;20.60;28.10;;;;;;5097979;28;20453;-84
2022/03/24 12:09:57;;;;;;;3.90;2.30;;;20.40;28.30;;;;;;5097820;28;20463;-84
2022/03/24 12:12:23;;;;;;;6.93;2.53;;;20.30;29.10;;;;;;5097731;28;20432;-83
2022/03/24 12:14:54;;;;;;;4.87;1.87;;;20.10;29.30;;;;;;5097203;28;20425;-83
2022/03/24 12:17:25;;;;;;;4.43;1.67;;;20.10;29.30;;;;;;5096330;28;20907;-83
2022/03/24 12:19:54;;;;;;;6.37;3.10;;;20.10;29.40;;;;;;5095811;28;21004;-83
2022/03/24 12:22:37;;;;;;;2.93;2.50;;;20.00;29.60;;;;;;5096312;28;20907;-83
2022/03/24 12:25:27;;;;;;;4.33;2.10;;;20.00;28.50;;;;;;5096025;28;20440;-83
2022/03/24 12:28:05;;;;;;;5.57;2.00;;;19.80;28.90;;;;;;5095759;28;20451;-83
2022/03/24 12:31:08;;;;;;;5.37;2.50;;;19.60;28.80;;;;;;5095949;28;20749;-82
2022/03/24 12:33:40;;;;;;;6.10;1.70;;;19.40;28.50;;;;;;5095787;28;20428;-83
2022/03/24 12:36:13;;;;;;;4.80;2.17;;;19.20;28.90;;;;;;5095941;28;20441;-82
2022/03/24 12:38:55;;;;;;;7.30;2.00;;;19.00;28.90;;;;;;5095620;28;20480;-83
2022/03/24 12:41:26;;;;;;;6.57;2.37;;;18.90;28.70;;;;;;5095643;28;20558;-82
2022/03/24 12:44:05;;;;;;;5.10;2.40;;;18.70;29.10;;;;;;5095737;28;20534;-83
2022/03/24 12:46:43;;;;;;;3.90;2.10;;;18.50;28.80;;;;;;5095649;28;20451;-83
2022/03/24 12:49:26;;;;;;;2.43;1.40;;;18.40;29.90;;;;;;5095449;28;20554;-83
2022/03/24 12:52:01;;;;;;;3.10;1.40;;;18.30;30.60;;;;;;5094992;28;20417;-83
2022/03/24 12:54:29;;;;;;;3.10;1.90;;;18.20;29.00;;;;;;5094793;28;20493;-83
2022/03/24 12:57:24;;;;;;;4.03;1.27;;;18.20;29.30;;;;;;5095024;28;20992;-83
2022/03/24 12:59:52;;;;;;;2.83;2.50;;;18.20;29.90;;;;;;5094839;28;20484;-82
2022/03/24 13:02:21;;;;;;;6.07;2.30;;;18.20;30.00;;;;;;5095103;28;21029;-83
2022/03/24 13:04:50;;;;;;;3.30;2.10;;;18.20;30.60;;;;;;5095184;28;20455;-82
2022/03/24 13:07:20;;;;;;;2.67;2.33;;;18.20;30.70;;;;;;5095381;28;20817;-85
2022/03/24 13:10:07;;;;;;;4.90;1.80;;;18.10;30.80;;;;;;5094977;28;20468;-84
2022/03/24 13:12:34;;;;;;;7.13;2.63;;;18.20;30.80;;;;;;5094811;28;20429;-84
2022/03/24 13:15:02;;;;;;;2.63;2.37;;;18.20;30.10;;;;;;5095146;28;20450;-84
2022/03/24 13:17:32;;;;;;;3.00;2.10;;;18.30;31.10;;;;;;5094698;28;20428;-84
2022/03/24 13:20:04;;;;;;;4.53;1.90;;;18.40;30.70;;;;;;5094967;28;20487;-83
2022/03/24 13:22:31;;;;;;;2.87;2.67;;;18.40;31.30;;;;;;5095173;28;20523;-82
2022/03/24 13:25:02;;;;;;;5.47;2.63;;;18.30;31.30;;;;;;5094515;28;20955;-84
2022/03/24 13:27:30;;;;;;;5.70;2.47;;;18.20;32.30;;;;;;5094805;28;20443;-84
2022/03/24 13:29:58;;;;;;;2.60;1.43;;;18.10;31.70;;;;;;5094548;28;20829;-84
2022/03/24 13:32:26;;;;;;;5.93;2.47;;;18.10;32.60;;;;;;5095023;28;20444;-84
2022/03/24 13:34:59;;;;;;;2.90;1.90;;;18.10;32.00;;;;;;5094404;28;20827;-84
2022/03/24 13:37:31;;;;;;;4.50;2.20;;;18.00;32.50;;;;;;5094385;28;20443;-84
2022/03/24 13:39:59;;;;;;;2.67;2.20;;;18.00;32.20;;;;;;5094267;28;20480;-84
2022/03/24 13:42:27;;;;;;;3.43;1.90;;;17.90;32.80;;;;;;5093970;28;20487;-84
2022/03/24 13:44:55;;;;;;;2.57;2.03;;;18.00;32.50;;;;;;5094311;28;20447;-85
2022/03/24 13:47:25;;;;;;;5.03;2.13;;;17.90;32.10;;;;;;5094151;28;20440;-84
2022/03/24 13:49:58;;;;;;;1.63;1.53;;;17.80;32.30;;;;;;5094173;28;20991;-84
2022/03/24 13:52:35;;;;;;;3.17;1.60;;;17.80;32.50;;;;;;5093888;28;20440;-84
2022/03/24 13:55:05;;;;;;;3.63;1.60;;;17.80;31.30;;;;;;5094434;28;20782;-84
2022/03/24 13:57:33;;;;;;;4.03;1.63;;;17.80;32.20;;;;;;5094370;28;20448;-84
2022/03/24 13:59:59;;;;;;;3.90;1.90;;;17.70;32.10;;;;;;5094423;28;20483;-83
2022/03/24 14:02:28;;;;;;;3.97;2.53;;;17.80;31.60;;;;;;5094190;28;20903;-85
2022/03/24 14:05:12;;;;;;;3.73;1.50;;;17.70;31.80;;;;;;5093734;28;20470;-83
2022/03/24 14:07:59;;;;;;;4.00;2.00;;;17.70;31.70;;;;;;5094087;28;20436;-83
2022/03/24 14:10:45;;;;;;;2.57;1.57;;;17.60;31.40;;;;;;5094249;28;20973;-84
2022/03/24 14:13:14;;;;;;;4.20;1.23;;;17.50;32.10;;;;;;5093920;28;20448;-82
2022/03/24 14:15:43;;;;;;;4.40;2.10;;;17.50;31.00;;;;;;5094093;28;20511;-81
2022/03/24 14:18:17;;;;;;;7.53;1.77;;;17.50;31.10;;;;;;5093593;28;20454;-82
2022/03/24 14:20:47;;;;;;;4.40;1.60;;;17.40;31.20;;;;;;5093986;28;20428;-82
2022/03/24 14:23:32;;;;;;;4.97;2.10;;;17.40;31.60;;;;;;5093827;28;20451;-82
2022/03/24 14:26:00;;;;;;;3.17;1.67;;;17.30;32.50;;;;;;5093824;28;20846;-82
2022/03/24 14:28:39;;;;;;;2.27;1.87;;;17.30;32.50;;;;;;5093676;28;20974;-82
2022/03/24 14:31:26;;;;;;;4.80;1.40;;;17.30;32.00;;;;;;5093795;28;20444;-82
2022/03/24 14:33:54;;;;;;;4.90;1.57;;;17.30;31.80;;;;;;5093833;28;20431;-81
2022/03/24 14:36:24;;;;;;;2.83;1.83;;;17.30;31.10;;;;;;5098732;28;20447;-81
2022/03/24 14:39:08;;;;;;;8.20;1.57;;;17.30;31.60;;;;;;5093236;28;20479;-81
2022/03/24 14:41:36;;;;;;;3.60;1.93;;;17.30;31.80;;;;;;5093802;28;20468;-83
2022/03/24 14:44:03;;;;;;;4.53;1.60;;;17.20;32.10;;;;;;5094154;28;20447;-83
2022/03/24 14:46:30;;;;;;;5.40;1.87;;;17.20;32.10;;;;;;5094176;28;20927;-83
2022/03/24 14:48:58;;;;;;;1.33;1.00;;;17.00;33.30;;;;;;5093964;28;20459;-83
2022/03/24 14:51:26;;;;;;;5.27;1.80;;;17.00;32.40;;;;;;5094515;28;20504;-83
2022/03/24 14:53:52;;;;;;;3.37;2.10;;;17.00;33.20;;;;;;5094225;28;20464;-83
2022/03/24 14:56:19;;;;;;;10.47;3.23;;;16.80;32.60;;;;;;5094615;28;20447;-83
2022/03/24 14:58:47;;;;;;;3.13;2.00;;;16.80;32.80;;;;;;5093932;28;20480;-84
2022/03/24 15:01:14;;;;;;;3.43;1.40;;;16.70;33.10;;;;;;5093941;28;20432;-83
2022/03/24 15:03:40;;;;;;;3.20;1.40;;;16.70;34.90;;;;;;5093839;28;20447;-83
2022/03/24 15:06:07;;;;;;;4.83;2.40;;;16.70;33.60;;;;;;5093828;28;20440;-83
2022/03/24 15:08:36;;;;;;;4.73;2.83;;;16.70;32.30;;;;;;5093449;28;21001;-83
2022/03/24 15:11:02;;;;;;;2.80;1.80;;;16.80;32.00;;;;;;5093779;28;20523;-84
2022/03/24 15:13:29;;;;;;;4.43;1.33;;;16.80;31.30;;;;;;5093752;28;20942;-84
2022/03/24 15:16:02;;;;;;;2.10;1.50;;;16.80;31.50;;;;;;5094146;28;20452;-83
2022/03/24 15:18:29;;;;;;;3.27;1.80;;;16.90;32.00;;;;;;5097436;28;20463;-83
2022/03/24 15:20:56;;;;;;;6.23;2.00;;;16.80;32.10;;;;;;5097232;28;20444;-83
2022/03/24 15:23:23;;;;;;;2.50;2.30;;;16.70;32.60;;;;;;5097468;28;20446;-83
2022/03/24 15:25:52;;;;;;;5.90;2.43;;;16.50;34.50;;;;;;5097515;28;20542;-83
2022/03/24 15:28:19;;;;;;;5.20;1.50;;;16.50;33.50;;;;;;5097250;28;20468;-83
2022/03/24 15:30:47;;;;;;;2.63;1.20;;;16.40;33.60;;;;;;5097290;28;20440;-84
2022/03/24 15:33:14;;;;;;;4.63;1.80;;;16.50;32.90;;;;;;5097472;28;20432;-83
2022/03/24 15:35:42;;;;;;;2.07;0.90;;;16.50;32.60;;;;;;5097510;28;20428;-83
2022/03/24 15:38:10;;;;;;;1.70;0.90;;;16.50;33.50;;;;;;5097160;28;20447;-84
2022/03/24 15:40:37;;;;;;;2.30;1.00;;;16.50;33.40;;;;;;5097110;28;20827;-84
2022/03/24 15:43:06;;;;;;;3.47;1.50;;;16.50;34.30;;;;;;5096802;28;20444;-81
2022/03/24 15:45:33;;;;;;;2.20;1.70;;;16.50;32.70;;;;;;5096566;28;20420;-82
2022/03/24 15:48:00;;;;;;;5.40;2.17;;;16.50;31.90;;;;;;5096440;28;20903;-82
2022/03/24 15:50:27;;;;;;;4.50;1.47;;;16.40;33.10;;;;;;5096524;28;20447;-82
2022/03/24 15:52:53;;;;;;;2.03;1.50;;;16.30;32.90;;;;;;5096387;28;20444;-82
2022/03/24 15:55:20;;;;;;;2.90;1.50;;;16.20;33.30;;;;;;5096692;28;20474;-82
2022/03/24 15:57:49;;;;;;;2.40;1.50;;;16.30;33.40;;;;;;5097036;28;20432;-82
2022/03/24 16:00:20;;;;;;;3.30;1.53;;;16.20;33.20;;;;;;5096227;28;20486;-81
2022/03/24 16:02:47;;;;;;;3.90;0.80;;;16.00;35.00;;;;;;5096431;28;20435;-81
2022/03/24 16:05:14;;;;;;;3.30;2.00;;;16.00;35.60;;;;;;5097265;28;20459;-81
2022/03/24 16:07:41;;;;;;;2.70;1.73;;;16.00;33.30;;;;;;5098524;28;20446;-81
2022/03/24 16:10:13;;;;;;;1.20;1.00;;;15.90;34.20;;;;;;5096848;28;20467;-82
2022/03/24 16:12:40;;;;;;;2.80;1.90;;;15.90;33.50;;;;;;5096614;28;20473;-82
2022/03/24 16:15:08;;;;;;;1.90;1.07;;;15.90;34.30;;;;;;5096158;28;20436;-81
2022/03/24 16:17:36;;;;;;;2.77;1.50;;;15.90;33.20;;;;;;5095737;28;20939;-81
2022/03/24 16:20:03;;;;;;;1.80;1.07;;;15.80;33.30;;;;;;5096013;28;20475;-81
2022/03/24 16:22:30;;;;;;;5.87;1.77;;;15.70;35.80;;;;;;5096225;28;20440;-82
2022/03/24 16:24:57;;;;;;;1.87;1.67;;;15.60;34.20;;;;;;5096086;28;20413;-81
2022/03/24 16:27:24;;;;;;;1.63;1.10;;;15.60;34.60;;;;;;5096236;28;20436;-81
2022/03/24 16:29:51;;;;;;;1.77;0.73;;;15.50;35.90;;;;;;5095368;28;20452;-81
2022/03/24 16:32:18;;;;;;;1.83;0.93;;;15.50;34.00;;;;;;5095351;28;20433;-81
2022/03/24 16:34:46;;;;;;;1.33;1.23;;;15.40;35.30;;;;;;5095820;28;20432;-82
2022/03/24 16:37:13;;;;;;;3.33;1.20;;;15.30;35.60;;;;;;5095731;28;20476;-81
2022/03/24 16:39:41;;;;;;;2.00;1.40;;;15.20;37.50;;;;;;5095609;28;20491;-81
2022/03/24 16:42:09;;;;;;;5.20;1.40;;;15.20;39.10;;;;;;5094954;28;20571;-81
2022/03/24 16:44:37;;;;;;;1.83;0.87;;;15.00;40.60;;;;;;5095346;28;20485;-81
2022/03/24 16:47:05;;;;;;;4.60;1.30;;;14.90;41.70;;;;;;5095766;28;20444;-81
2022/03/24 16:49:31;;;;;;;1.93;1.10;;;14.80;39.90;;;;;;5095139;28;20460;-81
2022/03/24 16:52:00;;;;;;;3.03;1.13;;;14.70;38.20;;;;;;5095076;28;20444;-82
2022/03/24 16:54:26;;;;;;;4.53;1.90;;;14.80;35.50;;;;;;5094595;28;20935;-82
2022/03/24 16:56:54;;;;;;;2.67;2.47;;;14.90;35.00;;;;;;5094753;28;20523;-81
2022/03/24 16:59:21;;;;;;;5.83;1.30;;;14.90;36.80;;;;;;5094497;28;20487;-81
2022/03/24 17:01:48;;;;;;;2.67;1.50;;;14.90;37.20;;;;;;5094982;28;20448;-81
2022/03/24 17:04:17;;;;;;;3.07;1.40;;;14.70;38.30;;;;;;5094839;28;20436;-82
2022/03/24 17:06:45;;;;;;;1.43;1.17;;;14.70;36.90;;;;;;5094412;28;20436;-82
2022/03/24 17:09:13;;;;;;;1.47;1.20;;;14.70;36.40;;;;;;5094519;28;20456;-82
2022/03/24 17:11:40;;;;;;;1.83;1.30;;;14.60;36.90;;;;;;5095641;28;20448;-83
2022/03/24 17:14:07;;;;;;;3.57;1.37;;;14.60;37.60;;;;;;5095569;28;20451;-83
2022/03/24 17:16:34;;;;;;;3.57;1.43;;;14.50;38.10;;;;;;5095231;28;20456;-83
2022/03/24 17:19:01;;;;;;;2.90;1.50;;;14.50;37.30;;;;;;5094991;28;21036;-84
2022/03/24 17:21:28;;;;;;;2.00;0.70;;;14.40;37.60;;;;;;5095299;28;20487;-84
2022/03/24 17:23:55;;;;;;;4.97;1.30;;;14.40;38.00;;;;;;5095262;28;20988;-84
2022/03/24 17:26:23;;;;;;;2.57;1.50;;;14.40;37.80;;;;;;5095312;28;20448;-84
2022/03/24 17:28:50;;;;;;;1.97;1.80;;;14.30;39.50;;;;;;5095060;28;20472;-84
2022/03/24 17:31:16;;;;;;;4.90;2.03;;;14.20;39.90;;;;;;5094831;28;20442;-84
2022/03/24 17:33:43;;;;;;;5.27;1.70;;;14.20;38.10;;;;;;5095138;28;20440;-84
2022/03/24 17:36:10;;;;;;;1.97;1.20;;;14.10;39.60;;;;;;5095308;28;20479;-84
2022/03/24 17:38:37;;;;;;;3.33;1.27;;;14.00;39.40;;;;;;5094644;28;20464;-84
2022/03/24 17:41:04;;;;;;;1.97;0.80;;;13.90;41.90;;;;;;5094299;28;20487;-84
2022/03/24 17:43:32;;;;;;;4.40;2.40;;;13.90;42.30;;;;;;5094830;28;20460;-84
2022/03/24 17:45:59;;;;;;;9.17;2.97;;;13.80;42.60;;;;;;5094652;28;20440;-82
2022/03/24 17:48:26;;;;;;;3.10;1.60;;;13.70;43.70;;;;;;5094165;28;20472;-83
2022/03/24 17:50:53;;;;;;;2.83;1.70;;;13.60;43.50;;;;;;5093972;28;20963;-83
2022/03/24 17:53:20;;;;;;;2.70;1.50;;;13.60;40.60;;;;;;5094060;28;20459;-83
2022/03/24 17:55:46;;;;;;;5.60;2.03;;;13.60;40.10;;;;;;5093844;28;20515;-83
2022/03/24 17:58:13;;;;;;;3.00;1.17;;;13.50;40.40;;;;;;5094026;28;20416;-83
2022/03/24 18:00:41;;;;;;;2.97;2.80;;;13.40;40.90;;;;;;5098042;28;20464;-83
2022/03/24 18:03:08;;;;;;;2.97;1.10;;;13.30;43.60;;;;;;5094029;28;20432;-83
2022/03/24 18:05:35;;;;;;;1.80;1.00;;;13.20;44.60;;;;;;5093614;28;20436;-83
2022/03/24 18:08:02;;;;;;;1.90;1.40;;;13.10;46.10;;;;;;5093860;28;20435;-83
2022/03/24 18:10:29;;;;;;;3.63;1.70;;;13.00;46.40;;;;;;5093604;28;20839;-83
2022/03/24 18:12:55;;;;;;;1.80;1.23;;;12.90;47.20;;;;;;5093453;28;20452;-83
2022/03/24 18:15:22;;;;;;;2.00;1.70;;;12.70;48.00;;;;;;5093534;28;20452;-83
2022/03/24 18:17:50;;;;;;;1.27;1.17;;;12.60;48.30;;;;;;5093455;28;20408;-83
2022/03/24 18:20:17;;;;;;;1.00;0.90;;;12.50;48.60;;;;;;5093302;28;20483;-83
2022/03/24 18:22:45;;;;;;;8.87;2.03;;;12.40;46.70;;;;;;5093295;28;20926;-83
2022/03/24 18:25:12;;;;;;;5.07;1.50;;;12.30;48.00;;;;;;5093340;28;20443;-83
2022/03/24 18:27:39;;;;;;;2.43;1.30;;;12.30;49.50;;;;;;5093368;28;20939;-83
2022/03/24 18:30:07;;;;;;;0.83;0.70;;;12.20;49.10;;;;;;5093357;28;20467;-84
2022/03/24 18:32:34;;;;;;;2.67;1.60;;;12.10;49.50;;;;;;5093546;28;20452;-84
2022/03/24 18:35:02;;;;;;;5.90;1.20;;;12.10;50.70;;;;;;5093695;28;20440;-85
2022/03/24 18:37:29;;;;;;;2.10;1.70;;;12.00;50.70;;;;;;5093831;28;20498;-83
2022/03/24 18:39:56;;;;;;;6.93;1.33;;;11.90;49.70;;;;;;5094247;28;20475;-84
2022/03/24 18:42:22;;;;;;;2.00;1.50;;;11.90;49.90;;;;;;5093082;28;20456;-83
2022/03/24 18:44:49;;;;;;;10.67;1.20;;;11.80;50.20;;;;;;5093179;28;20432;-83
2022/03/24 18:47:16;;;;;;;3.03;0.80;;;11.70;50.50;;;;;;5093457;28;20452;-84
2022/03/24 18:49:43;;;;;;;1.80;1.70;;;11.70;50.70;;;;;;5093373;28;20471;-84
2022/03/24 18:52:13;;;;;;;2.23;2.13;;;11.70;49.50;;;;;;5097121;28;20452;-83
2022/03/24 18:54:39;;;;;;;1.87;0.60;;;11.60;45.90;;;;;;5097028;28;20440;-83
2022/03/24 18:57:07;;;;;;;2.20;1.10;;;11.60;46.10;;;;;;5097279;28;20456;-83
2022/03/24 18:59:34;;;;;;;2.40;1.20;;;11.60;46.60;;;;;;5097141;28;20460;-83
2022/03/24 19:02:02;;;;;;;7.17;1.03;;;11.60;45.10;;;;;;5096865;28;20486;-84
2022/03/24 19:04:29;;;;;;;7.40;1.57;;;11.50;46.10;;;;;;5097198;28;20448;-82
2022/03/24 19:06:56;;;;;;;1.00;0.90;;;11.50;46.50;;;;;;5097154;28;20440;-82
2022/03/24 19:09:24;;;;;;;3.93;1.40;;;11.40;47.30;;;;;;5096964;28;20459;-82